Time;durP1;ratioP1;P1;durP2;ratioP2;P2;SDS_P1;SDS_P2;PMS_P1;PMS_P2;Temp;Humidity;BMP_temperature;BMP_pressure;BME280_temperature;BME280_humidity;BME280_pressure;Samples;Min_cycle;Max_cycle;Signal;HPM_P1;HPM_P2
2022/11/01 00:02:11;;;;;;;38.45;16.60;;;12.90;99.90;;;;;;5011559;28;20054;-66
2022/11/01 00:04:39;;;;;;;39.42;18.95;;;12.90;99.90;;;;;;5021114;28;20048;-64
2022/11/01 00:07:06;;;;;;;29.90;15.90;;;12.90;99.90;;;;;;5007464;28;20060;-64
2022/11/01 00:09:34;;;;;;;31.13;15.70;;;12.90;99.90;;;;;;5019456;28;20045;-64
2022/11/01 00:12:02;;;;;;;32.78;14.68;;;12.90;99.90;;;;;;5012568;28;20045;-65
2022/11/01 00:14:29;;;;;;;26.08;13.65;;;13.00;99.90;;;;;;5017746;28;20068;-64
2022/11/01 00:16:57;;;;;;;25.50;14.18;;;12.90;99.90;;;;;;5012911;28;20046;-64
2022/11/01 00:19:24;;;;;;;26.65;12.82;;;12.90;99.90;;;;;;5018980;28;20053;-66
2022/11/01 00:21:52;;;;;;;27.85;13.27;;;13.00;99.90;;;;;;5015887;28;20045;-67
2022/11/01 00:24:20;;;;;;;27.00;13.63;;;13.00;99.90;;;;;;5023069;28;20049;-66
2022/11/01 00:26:48;;;;;;;27.70;13.50;;;12.90;99.90;;;;;;5013928;28;20053;-66
2022/11/01 00:29:20;;;;;;;26.25;13.10;;;12.90;99.90;;;;;;5016795;28;20038;-68
2022/11/01 00:31:48;;;;;;;26.42;12.70;;;12.90;99.90;;;;;;5019011;28;20041;-69
2022/11/01 00:34:16;;;;;;;24.02;12.98;;;12.90;99.90;;;;;;5028857;28;20060;-70
2022/11/01 00:36:44;;;;;;;26.10;12.10;;;;;;;;;;5017555;28;20513;-66
2022/11/01 00:39:13;;;;;;;22.67;11.20;;;12.90;99.90;;;;;;5025397;28;20597;-65
2022/11/01 00:41:41;;;;;;;16.47;8.67;;;12.90;99.90;;;;;;5013766;28;20053;-68
2022/11/01 00:44:08;;;;;;;17.30;9.52;;;12.90;99.90;;;;;;5009971;28;20674;-69
2022/11/01 00:46:36;;;;;;;21.27;11.02;;;12.90;99.90;;;;;;5009164;28;20050;-69
2022/11/01 00:49:04;;;;;;;16.30;8.73;;;12.90;99.90;;;;;;5014830;28;20401;-70
2022/11/01 00:51:31;;;;;;;17.48;8.52;;;12.90;99.90;;;;;;5016749;28;20064;-70
2022/11/01 00:53:59;;;;;;;16.13;8.45;;;12.80;99.90;;;;;;5028422;28;20052;-67
2022/11/01 00:56:27;;;;;;;16.85;8.63;;;12.80;99.90;;;;;;5020579;28;20060;-67
2022/11/01 00:58:54;;;;;;;15.95;8.02;;;12.80;99.90;;;;;;5025525;28;20064;-67
2022/11/01 01:01:22;;;;;;;14.80;7.82;;;12.80;99.90;;;;;;5023821;28;20041;-65
2022/11/01 01:03:50;;;;;;;15.07;8.95;;;12.80;99.90;;;;;;5018063;28;20060;-65
2022/11/01 01:06:17;;;;;;;18.10;9.45;;;12.80;99.90;;;;;;5003364;28;20050;-68
2022/11/01 01:08:45;;;;;;;18.65;8.77;;;12.80;99.90;;;;;;5026072;28;20049;-66
2022/11/01 01:11:13;;;;;;;13.75;7.95;;;12.80;99.90;;;;;;5017722;28;20046;-65
2022/11/01 01:13:41;;;;;;;14.25;8.20;;;12.80;99.90;;;;;;5023589;28;20045;-66
2022/11/01 01:16:11;;;;;;;16.75;8.05;;;12.80;99.90;;;;;;5014484;28;20042;-67
2022/11/01 01:18:38;;;;;;;15.18;8.52;;;12.80;99.90;;;;;;5015809;28;20505;-66
2022/11/01 01:21:06;;;;;;;19.30;8.30;;;12.80;99.90;;;;;;5007523;28;20038;-64
2022/11/01 01:23:35;;;;;;;17.90;8.55;;;12.80;99.90;;;;;;5001543;28;20050;-64
2022/11/01 01:26:10;;;;;;;18.08;8.23;;;12.80;99.90;;;;;;5010780;28;20049;-64
2022/11/01 01:28:37;;;;;;;17.20;7.45;;;12.80;99.90;;;;;;5022772;28;20053;-64
2022/11/01 01:31:12;;;;;;;13.52;7.32;;;12.80;99.90;;;;;;5025723;28;20046;-65
2022/11/01 01:33:40;;;;;;;17.30;6.88;;;12.80;99.90;;;;;;5017589;28;20508;-65
2022/11/01 01:36:07;;;;;;;13.20;6.75;;;12.80;99.90;;;;;;5019383;28;20046;-64
2022/11/01 01:38:35;;;;;;;13.32;6.15;;;12.80;99.90;;;;;;5006609;28;20053;-65
2022/11/01 01:43:49;;;;;;;11.43;6.18;;;12.80;99.90;;;;;;5015890;28;20041;-65
2022/11/01 01:46:16;;;;;;;11.82;5.65;;;12.80;99.90;;;;;;5021537;28;20054;-64
2022/11/01 01:48:53;;;;;;;11.32;4.65;;;12.70;99.90;;;;;;5015480;28;20046;-65
2022/11/01 01:51:23;;;;;;;7.68;4.90;;;12.70;99.90;;;;;;5015297;28;20045;-64
2022/11/01 01:53:53;;;;;;;9.15;4.75;;;12.70;99.90;;;;;;5019041;28;20034;-65
2022/11/01 01:56:30;;;;;;;9.13;4.47;;;12.70;99.90;;;;;;5019736;28;20382;-69
2022/11/01 01:59:07;;;;;;;6.68;4.07;;;12.70;99.90;;;;;;5028048;28;20050;-67
2022/11/01 02:01:38;;;;;;;9.20;4.78;;;12.70;99.90;;;;;;5017547;28;20057;-65
2022/11/01 02:04:27;;;;;;;8.13;4.40;;;12.70;99.90;;;;;;4999008;28;20386;-64
2022/11/01 02:06:54;;;;;;;8.07;4.80;;;12.60;99.90;;;;;;5004371;28;20058;-66
2022/11/01 02:09:22;;;;;;;7.88;3.97;;;12.60;99.90;;;;;;5013918;28;20049;-64
2022/11/01 02:11:53;;;;;;;7.88;3.83;;;12.60;99.90;;;;;;5015030;28;20076;-64
2022/11/01 02:14:23;;;;;;;8.60;3.95;;;12.60;99.90;;;;;;5010097;28;20045;-63
2022/11/01 02:17:09;;;;;;;8.77;4.72;;;12.50;99.90;;;;;;5016733;28;20053;-64
2022/11/01 02:20:03;;;;;;;6.95;4.30;;;12.60;99.90;;;;;;5015961;28;20053;-71
2022/11/01 02:22:49;;;;;;;11.75;6.68;;;12.50;99.90;;;;;;5010728;28;20058;-70
2022/11/01 02:25:34;;;;;;;13.10;6.82;;;12.50;99.90;;;;;;5015461;28;20054;-70
2022/11/01 02:28:21;;;;;;;15.25;8.10;;;12.50;99.90;;;;;;5020479;28;20062;-70
2022/11/01 02:31:29;;;;;;;18.30;9.10;;;12.50;99.90;;;;;;5009254;28;21030;-65
2022/11/01 02:34:20;;;;;;;13.57;7.35;;;12.50;99.90;;;;;;4986558;28;20061;-64
2022/11/01 02:36:56;;;;;;;15.15;8.55;;;12.50;99.90;;;;;;5020958;28;20052;-64
2022/11/01 02:39:32;;;;;;;13.82;7.28;;;12.50;99.90;;;;;;5024463;28;20041;-64
2022/11/01 02:42:17;;;;;;;12.57;7.40;;;12.50;99.90;;;;;;5016831;28;20065;-64
2022/11/01 02:44:57;;;;;;;15.68;7.88;;;12.40;99.90;;;;;;5021025;28;20042;-64
2022/11/01 02:47:27;;;;;;;13.60;7.75;;;12.40;99.90;;;;;;5011304;28;20053;-69
2022/11/01 02:50:04;;;;;;;16.15;7.32;;;12.40;99.90;;;;;;5021827;28;20049;-70
2022/11/01 02:52:34;;;;;;;17.67;8.27;;;12.40;99.90;;;;;;5021647;28;20061;-69
2022/11/01 02:55:06;;;;;;;;;;;12.40;99.90;;;;;;5025929;28;20485;-70
2022/11/01 02:57:38;;;;;;;15.40;7.15;;;12.40;99.90;;;;;;5011800;28;19928;-70
2022/11/01 03:00:35;;;;;;;13.30;7.53;;;12.40;99.90;;;;;;5029637;28;20053;-65
2022/11/01 03:03:11;;;;;;;16.02;8.32;;;12.40;99.90;;;;;;5014602;28;20050;-67
2022/11/01 03:05:43;;;;;;;15.65;7.63;;;12.40;99.90;;;;;;5025083;28;20044;-67
2022/11/01 03:08:17;;;;;;;15.18;7.72;;;12.40;99.90;;;;;;5005268;28;20433;-67
2022/11/01 03:11:09;;;;;;;14.38;7.00;;;12.40;99.90;;;;;;5029876;28;20049;-65
2022/11/01 03:14:19;;;;;;;12.52;7.05;;;12.40;99.90;;;;;;5023368;28;20046;-70
2022/11/01 03:17:12;;;;;;;12.03;6.70;;;12.40;99.90;;;;;;5021376;28;20151;-70
2022/11/01 03:20:03;;;;;;;15.02;6.97;;;12.40;99.90;;;;;;5032062;28;20295;-63
2022/11/01 03:22:45;;;;;;;11.75;6.00;;;12.40;99.90;;;;;;5013483;28;20387;-63
2022/11/01 03:28:05;;;;;;;9.30;4.60;;;12.30;99.90;;;;;;5026259;28;20049;-65
2022/11/01 03:30:34;;;;;;;8.07;4.43;;;12.30;99.90;;;;;;5021415;28;20046;-68
2022/11/01 03:33:02;;;;;;;9.23;4.43;;;12.20;99.90;;;;;;5030315;28;20044;-68
2022/11/01 03:35:37;;;;;;;7.63;4.05;;;12.20;99.90;;;;;;5032758;28;20052;-64
2022/11/01 03:38:09;;;;;;;5.63;3.05;;;12.10;99.90;;;;;;5018627;28;20046;-64
2022/11/01 03:40:43;;;;;;;7.45;3.80;;;12.10;99.90;;;;;;5031451;28;20053;-64
2022/11/01 03:43:14;;;;;;;8.05;4.20;;;12.10;99.90;;;;;;5017482;28;20497;-65
2022/11/01 03:45:42;;;;;;;7.10;3.88;;;12.00;99.90;;;;;;5029215;28;20058;-68
2022/11/01 03:48:09;;;;;;;8.00;3.30;;;12.00;99.90;;;;;;5014403;28;20405;-64
2022/11/01 03:50:39;;;;;;;5.00;2.63;;;12.00;99.90;;;;;;5019448;28;20053;-66
2022/11/01 03:53:06;;;;;;;6.10;2.58;;;12.00;99.90;;;;;;5015175;28;20498;-64
2022/11/01 03:55:34;;;;;;;5.63;3.20;;;12.00;99.90;;;;;;5014111;28;20486;-63
2022/11/01 03:58:01;;;;;;;5.88;2.90;;;12.00;99.90;;;;;;5012365;28;20100;-64
2022/11/01 04:00:33;;;;;;;4.60;3.05;;;11.90;99.90;;;;;;5012455;28;20054;-65
2022/11/01 04:03:01;;;;;;;4.32;2.50;;;11.90;99.90;;;;;;5013207;28;20057;-64
2022/11/01 04:05:31;;;;;;;4.50;2.92;;;11.90;99.90;;;;;;5016034;28;20046;-64
2022/11/01 04:07:58;;;;;;;3.08;2.38;;;11.90;99.90;;;;;;5031317;28;20041;-63
2022/11/01 04:10:28;;;;;;;4.07;2.63;;;11.80;99.90;;;;;;5023757;28;20042;-63
2022/11/01 04:12:56;;;;;;;4.88;2.50;;;11.90;99.90;;;;;;5015399;28;20050;-63
2022/11/01 04:21:14;;;;;;;4.18;1.30;;;11.90;99.90;;;;;;5031462;28;20033;-63
2022/11/01 04:23:43;;;;;;;1.35;1.10;;;11.90;99.90;;;;;;5032781;28;20046;-64
2022/11/01 04:26:12;;;;;;;1.42;0.63;;;11.80;99.90;;;;;;5021280;28;20045;-64
2022/11/01 04:28:40;;;;;;;1.38;0.60;;;11.80;99.90;;;;;;5020626;28;20069;-63
2022/11/01 04:31:08;;;;;;;0.93;0.40;;;11.80;99.90;;;;;;5021085;28;20048;-63
2022/11/01 04:33:36;;;;;;;1.30;0.32;;;11.80;99.90;;;;;;5012708;28;20375;-63
2022/11/01 04:36:07;;;;;;;1.45;0.50;;;11.80;99.90;;;;;;5022761;28;20063;-63
2022/11/01 04:38:34;;;;;;;1.33;0.47;;;11.80;99.90;;;;;;5012836;28;20129;-65
2022/11/01 04:41:02;;;;;;;0.20;0.10;;;11.70;99.90;;;;;;5012058;28;20054;-64
2022/11/01 04:43:29;;;;;;;3.33;0.40;;;11.70;99.90;;;;;;5012641;28;20054;-63
2022/11/01 04:45:57;;;;;;;1.35;0.75;;;11.60;99.90;;;;;;5017531;28;20386;-64
2022/11/01 04:48:26;;;;;;;1.42;0.20;;;11.60;99.90;;;;;;5032383;28;20049;-64
2022/11/01 04:50:53;;;;;;;0.95;0.40;;;11.60;99.90;;;;;;5014555;28;20081;-65
2022/11/01 04:53:21;;;;;;;2.05;0.30;;;11.50;99.90;;;;;;5018292;28;20049;-68
2022/11/01 04:55:49;;;;;;;3.42;0.38;;;11.50;99.90;;;;;;5010920;28;20045;-67
2022/11/01 04:58:16;;;;;;;1.63;0.50;;;11.50;99.90;;;;;;5017122;28;20041;-69
2022/11/01 05:00:44;;;;;;;2.67;1.13;;;11.40;99.90;;;;;;5029706;28;20057;-64
2022/11/01 05:03:12;;;;;;;1.70;0.70;;;11.30;99.90;;;;;;5030663;28;20052;-67
2022/11/01 05:05:39;;;;;;;2.80;0.47;;;11.20;99.90;;;;;;5030960;28;20053;-65
2022/11/01 05:08:09;;;;;;;3.25;1.15;;;11.10;99.90;;;;;;5029537;28;20049;-66
2022/11/01 05:10:39;;;;;;;4.22;1.88;;;10.90;99.90;;;;;;5022049;28;20053;-71
2022/11/01 05:13:08;;;;;;;5.38;1.35;;;10.80;99.90;;;;;;5022929;28;20056;-72
2022/11/01 05:15:36;;;;;;;3.33;0.82;;;10.70;99.90;;;;;;5029069;28;20038;-72
2022/11/01 05:18:10;;;;;;;2.90;0.63;;;10.60;99.90;;;;;;5018318;28;20037;-72
2022/11/01 05:20:37;;;;;;;2.42;1.00;;;10.50;99.90;;;;;;5030790;28;20037;-71
2022/11/01 05:23:05;;;;;;;1.58;0.80;;;10.40;99.90;;;;;;5016897;28;20049;-73
2022/11/01 05:25:33;;;;;;;5.60;1.65;;;10.30;99.90;;;;;;5014813;28;20038;-72
2022/11/01 05:28:07;;;;;;;4.72;0.80;;;10.20;99.90;;;;;;5024896;28;20417;-69
2022/11/01 05:30:36;;;;;;;5.60;1.02;;;10.20;99.90;;;;;;5024515;28;20060;-72
2022/11/01 05:33:05;;;;;;;4.15;0.68;;;10.10;99.90;;;;;;5010786;28;20049;-73
2022/11/01 05:35:34;;;;;;;2.30;0.40;;;10.10;99.90;;;;;;5023876;28;20045;-73
2022/11/01 05:38:03;;;;;;;3.65;0.52;;;10.00;99.90;;;;;;5018193;28;20042;-73
2022/11/01 05:40:31;;;;;;;5.32;0.90;;;9.90;99.90;;;;;;5015955;28;20049;-74
2022/11/01 05:42:59;;;;;;;4.93;0.68;;;9.90;99.90;;;;;;5029256;28;20049;-73
2022/11/01 05:45:27;;;;;;;4.65;1.00;;;9.90;99.90;;;;;;5022262;28;20052;-73
2022/11/01 05:48:00;;;;;;;6.28;1.00;;;9.90;99.90;;;;;;5009342;28;20042;-63
2022/11/01 05:50:27;;;;;;;12.18;1.00;;;9.80;99.90;;;;;;5007678;28;20072;-74
2022/11/01 05:53:03;;;;;;;5.43;0.82;;;9.80;99.90;;;;;;5020966;28;20061;-72
2022/11/01 05:55:31;;;;;;;3.72;0.57;;;9.80;99.90;;;;;;5006665;28;20054;-73
2022/11/01 05:57:59;;;;;;;6.32;2.15;;;9.80;99.90;;;;;;5010304;28;20413;-73
2022/11/01 06:00:27;;;;;;;6.60;1.35;;;9.80;99.90;;;;;;5014398;28;20046;-73
2022/11/01 06:02:56;;;;;;;6.35;0.98;;;9.80;99.90;;;;;;5003288;28;20049;-68
2022/11/01 06:05:25;;;;;;;6.68;0.75;;;9.80;99.90;;;;;;5015336;28;20049;-67
2022/11/01 06:07:53;;;;;;;7.65;1.48;;;9.80;99.90;;;;;;5028167;28;20050;-64
2022/11/01 06:10:21;;;;;;;3.70;0.95;;;9.70;99.90;;;;;;5028759;28;20375;-65
2022/11/01 06:12:49;;;;;;;4.20;1.25;;;9.80;99.90;;;;;;5028422;28;20049;-64
2022/11/01 06:15:16;;;;;;;15.27;1.17;;;9.70;99.90;;;;;;5016817;28;20060;-69
2022/11/01 06:17:44;;;;;;;6.68;0.95;;;9.60;99.90;;;;;;5019440;28;20045;-65
2022/11/01 06:20:12;;;;;;;7.00;0.98;;;9.60;99.90;;;;;;5012206;28;20562;-68
2022/11/01 06:22:40;;;;;;;12.82;1.30;;;9.60;99.90;;;;;;5014300;28;20042;-64
2022/11/01 06:25:08;;;;;;;4.13;0.75;;;9.60;99.90;;;;;;5026607;28;20049;-63
2022/11/01 06:27:35;;;;;;;11.13;2.10;;;9.60;99.90;;;;;;5016201;28;20049;-63
2022/11/01 06:30:04;;;;;;;13.80;1.08;;;9.60;99.90;;;;;;5010842;28;20053;-63
2022/11/01 06:32:31;;;;;;;9.23;1.13;;;9.60;99.90;;;;;;5017296;28;20072;-63
2022/11/01 06:34:59;;;;;;;4.55;1.23;;;9.60;99.90;;;;;;5011319;28;20041;-63
2022/11/01 06:37:27;;;;;;;12.45;1.38;;;9.60;99.90;;;;;;5015665;28;20378;-63
2022/11/01 06:39:54;;;;;;;5.78;1.45;;;9.60;99.90;;;;;;5025272;28;20267;-64
2022/11/01 06:42:22;;;;;;;9.40;1.15;;;9.60;99.90;;;;;;5013298;28;20049;-63
2022/11/01 06:44:50;;;;;;;5.97;1.00;;;9.60;99.90;;;;;;5019949;28;20545;-66
2022/11/01 06:47:17;;;;;;;6.97;1.45;;;9.60;99.90;;;;;;5024880;28;20057;-63
2022/11/01 06:49:45;;;;;;;9.05;1.30;;;9.60;99.90;;;;;;5022280;28;20490;-63
2022/11/01 06:52:12;;;;;;;12.55;1.77;;;9.60;99.90;;;;;;5014028;28;20045;-63
2022/11/01 06:54:40;;;;;;;12.18;1.27;;;9.70;99.90;;;;;;5030540;28;20060;-63
2022/11/01 06:57:08;;;;;;;10.48;1.33;;;9.70;99.90;;;;;;5019442;28;20041;-64
2022/11/01 06:59:35;;;;;;;11.20;1.20;;;9.80;99.90;;;;;;5010596;28;20042;-63
2022/11/01 07:02:03;;;;;;;11.30;1.58;;;9.80;99.90;;;;;;5010053;28;20049;-69
2022/11/01 07:04:31;;;;;;;5.03;0.95;;;9.80;99.90;;;;;;5015790;28;20061;-63
2022/11/01 07:06:59;;;;;;;9.27;1.13;;;9.90;99.90;;;;;;5025096;28;20037;-63
2022/11/01 07:09:27;;;;;;;11.85;1.40;;;9.90;99.90;;;;;;5014398;28;20050;-68
2022/11/01 07:11:54;;;;;;;12.48;2.55;;;9.90;99.90;;;;;;5011543;28;20053;-63
2022/11/01 07:14:22;;;;;;;15.45;2.10;;;10.00;99.90;;;;;;5019333;28;20367;-63
2022/11/01 07:16:50;;;;;;;9.60;1.35;;;10.00;99.90;;;;;;5025864;28;20046;-70
2022/11/01 07:19:17;;;;;;;12.70;1.77;;;10.00;99.90;;;;;;5007806;28;20121;-65
2022/11/01 07:21:45;;;;;;;16.52;1.50;;;10.10;99.90;;;;;;5007717;28;20052;-63
2022/11/01 07:24:13;;;;;;;14.40;2.70;;;10.10;99.90;;;;;;5027759;28;20067;-63
2022/11/01 07:26:40;;;;;;;15.25;1.77;;;10.10;99.90;;;;;;5028424;28;20049;-65
2022/11/01 07:29:08;;;;;;;10.70;1.80;;;10.10;99.90;;;;;;5015878;28;20286;-63
2022/11/01 07:31:37;;;;;;;14.27;1.70;;;10.10;99.90;;;;;;5012581;28;20050;-63
2022/11/01 07:34:05;;;;;;;15.82;1.65;;;10.20;99.90;;;;;;5028166;28;20049;-64
2022/11/01 07:36:33;;;;;;;13.18;1.63;;;10.20;99.90;;;;;;5008672;28;20069;-66
2022/11/01 07:39:00;;;;;;;32.80;4.03;;;10.20;99.90;;;;;;5021734;28;20053;-72
2022/11/01 07:41:28;;;;;;;15.25;1.80;;;10.20;99.90;;;;;;5009257;28;20544;-64
2022/11/01 07:43:56;;;;;;;13.63;1.52;;;10.20;99.90;;;;;;5018463;28;20389;-62
2022/11/01 07:46:23;;;;;;;7.30;1.45;;;10.30;99.90;;;;;;5009995;28;20050;-71
2022/11/01 07:48:51;;;;;;;18.23;1.63;;;10.30;99.90;;;;;;5018530;28;20045;-63
2022/11/01 07:51:19;;;;;;;14.18;2.88;;;10.30;99.90;;;;;;5008376;28;20050;-72
2022/11/01 07:53:47;;;;;;;13.63;1.67;;;10.30;99.90;;;;;;5015182;28;20057;-65
2022/11/01 07:56:14;;;;;;;6.15;1.17;;;10.30;99.90;;;;;;5018522;28;20045;-63
2022/11/01 07:58:42;;;;;;;8.82;1.52;;;10.40;99.90;;;;;;5014409;28;20053;-63
2022/11/01 08:01:10;;;;;;;9.73;1.45;;;10.40;99.90;;;;;;5018355;28;20045;-66
2022/11/01 08:03:38;;;;;;;9.50;2.10;;;10.50;99.90;;;;;;5010055;28;20054;-65
2022/11/01 08:06:06;;;;;;;12.07;1.48;;;10.50;99.90;;;;;;5007120;28;20421;-71
2022/11/01 08:08:33;;;;;;;13.18;1.52;;;10.50;99.90;;;;;;5025314;28;20056;-72
2022/11/01 08:11:01;;;;;;;7.97;1.75;;;10.50;99.90;;;;;;5009202;28;20037;-72
2022/11/01 08:13:29;;;;;;;8.40;1.52;;;10.60;99.90;;;;;;5015387;28;20037;-73
2022/11/01 08:16:01;;;;;;;11.70;2.58;;;10.60;99.90;;;;;;5004477;28;20054;-68
2022/11/01 08:18:28;;;;;;;12.35;2.08;;;10.60;99.90;;;;;;5009738;28;20033;-71
2022/11/01 08:20:57;;;;;;;17.15;1.75;;;10.60;99.90;;;;;;5004854;28;20054;-72
2022/11/01 08:23:25;;;;;;;10.02;1.48;;;10.60;99.90;;;;;;5012009;28;20686;-67
2022/11/01 08:25:53;;;;;;;10.65;1.27;;;10.60;99.90;;;;;;5017170;28;20516;-71
2022/11/01 08:28:22;;;;;;;8.40;2.30;;;10.60;99.90;;;;;;5018093;28;20504;-68
2022/11/01 08:30:49;;;;;;;14.27;2.40;;;10.60;99.90;;;;;;5029273;28;20061;-62
2022/11/01 08:33:17;;;;;;;12.07;1.63;;;10.60;99.90;;;;;;5028932;28;20049;-66
2022/11/01 08:35:45;;;;;;;14.70;2.20;;;10.70;99.90;;;;;;5019115;28;20410;-69
2022/11/01 08:38:18;;;;;;;9.88;1.42;;;10.70;99.90;;;;;;5019412;28;20041;-73
2022/11/01 08:40:45;;;;;;;10.70;1.42;;;10.70;99.90;;;;;;5028290;28;20045;-71
2022/11/01 08:43:13;;;;;;;16.17;1.48;;;10.80;99.90;;;;;;5027314;28;20541;-69
2022/11/01 08:45:41;;;;;;;16.83;2.28;;;10.80;99.90;;;;;;5028939;28;20049;-70
2022/11/01 08:48:09;;;;;;;7.03;1.30;;;10.80;99.90;;;;;;5028982;28;20042;-71
2022/11/01 08:50:37;;;;;;;12.40;1.40;;;10.90;99.90;;;;;;5027897;28;20041;-70
2022/11/01 08:53:07;;;;;;;7.47;1.25;;;10.90;99.90;;;;;;5028637;28;20041;-62
2022/11/01 08:55:35;;;;;;;8.20;0.98;;;11.00;99.90;;;;;;5028764;28;20512;-61
2022/11/01 08:58:05;;;;;;;14.18;2.85;;;11.00;99.90;;;;;;5027748;28;20398;-61
2022/11/01 09:00:34;;;;;;;5.70;1.00;;;11.20;99.90;;;;;;5028924;28;20041;-67
2022/11/01 09:03:02;;;;;;;9.60;1.30;;;11.30;99.90;;;;;;5017620;28;20041;-64
2022/11/01 09:05:30;;;;;;;16.77;2.00;;;11.30;99.90;;;;;;5014500;28;20050;-60
2022/11/01 09:07:59;;;;;;;9.07;1.27;;;11.40;99.90;;;;;;5008856;28;20405;-61
2022/11/01 09:10:29;;;;;;;8.02;1.17;;;11.50;99.90;;;;;;5013511;28;20053;-66
2022/11/01 09:12:58;;;;;;;5.68;0.90;;;11.60;99.90;;;;;;5017431;28;20042;-61
2022/11/01 09:15:27;;;;;;;8.68;1.17;;;11.70;99.90;;;;;;5008984;28;20042;-61
2022/11/01 09:17:55;;;;;;;5.60;0.98;;;11.70;99.90;;;;;;5011834;28;20046;-62
2022/11/01 09:20:23;;;;;;;5.15;1.35;;;11.70;99.90;;;;;;5008118;28;20385;-61
2022/11/01 09:22:51;;;;;;;8.52;1.08;;;11.80;99.90;;;;;;5018897;28;20057;-60
2022/11/01 09:25:19;;;;;;;9.50;1.15;;;11.80;99.90;;;;;;5027011;28;20056;-63
2022/11/01 09:27:46;;;;;;;9.02;0.80;;;11.90;99.90;;;;;;5008037;28;20064;-63
2022/11/01 09:30:14;;;;;;;4.72;0.77;;;12.00;99.90;;;;;;5009970;28;20061;-61
2022/11/01 09:32:42;;;;;;;9.50;1.67;;;12.20;99.90;;;;;;5007338;28;20061;-63
2022/11/01 09:35:09;;;;;;;10.73;1.27;;;12.40;99.90;;;;;;5013344;28;20050;-64
2022/11/01 09:37:37;;;;;;;11.57;1.33;;;12.40;99.90;;;;;;5012590;28;20049;-63
2022/11/01 09:40:06;;;;;;;6.15;0.90;;;12.50;99.90;;;;;;5010600;28;20647;-60
2022/11/01 09:42:39;;;;;;;12.68;2.25;;;12.60;99.90;;;;;;5010915;28;20050;-63
2022/11/01 09:45:16;;;;;;;7.25;1.33;;;12.60;99.90;;;;;;5008038;28;20660;-62
2022/11/01 09:47:49;;;;;;;14.77;1.45;;;12.60;99.90;;;;;;5012657;28;20064;-63
2022/11/01 09:50:17;;;;;;;10.55;1.05;;;12.60;99.90;;;;;;5010674;28;20049;-63
2022/11/01 09:52:45;;;;;;;9.30;1.45;;;12.70;99.90;;;;;;5026940;28;20062;-63
2022/11/01 09:55:14;;;;;;;6.38;0.90;;;12.60;99.90;;;;;;5027929;28;20042;-61
2022/11/01 09:57:49;;;;;;;17.80;1.92;;;12.60;99.90;;;;;;5027552;28;20496;-62
2022/11/01 10:00:20;;;;;;;11.63;1.80;;;12.60;99.90;;;;;;5028055;28;20046;-66
2022/11/01 10:02:57;;;;;;;7.65;0.88;;;12.60;99.90;;;;;;5027514;28;20038;-61
2022/11/01 10:05:58;;;;;;;8.98;1.50;;;12.60;99.90;;;;;;5025207;28;20053;-64
2022/11/01 10:08:34;;;;;;;13.80;1.83;;;12.60;99.90;;;;;;5008575;28;20049;-63
2022/11/01 10:11:11;;;;;;;10.68;1.52;;;12.60;99.90;;;;;;5007972;28;20046;-63
2022/11/01 10:13:45;;;;;;;10.95;1.48;;;12.60;99.90;;;;;;5012379;28;20514;-62
2022/11/01 10:16:37;;;;;;;9.38;1.13;;;12.60;99.90;;;;;;5008359;28;20046;-63
2022/11/01 10:19:20;;;;;;;9.65;1.63;;;12.70;99.90;;;;;;5023997;28;20060;-64
2022/11/01 10:21:52;;;;;;;10.18;2.42;;;12.70;99.90;;;;;;5020219;28;20054;-64
2022/11/01 10:24:26;;;;;;;10.82;1.65;;;12.80;99.90;;;;;;5020861;28;20416;-67
2022/11/01 10:27:03;;;;;;;6.35;1.08;;;12.90;99.90;;;;;;5026474;28;20405;-64
2022/11/01 10:29:57;;;;;;;8.73;1.30;;;12.90;99.90;;;;;;5008123;28;20049;-69
2022/11/01 10:32:39;;;;;;;11.50;1.27;;;13.00;99.90;;;;;;5011518;28;20049;-64
2022/11/01 10:35:14;;;;;;;9.80;1.58;;;13.00;99.90;;;;;;5024105;28;20053;-66
2022/11/01 10:37:52;;;;;;;12.90;1.23;;;13.00;99.90;;;;;;5014759;28;20505;-67
2022/11/01 10:40:46;;;;;;;14.18;1.67;;;13.00;99.90;;;;;;5027554;28;20057;-62
2022/11/01 10:43:21;;;;;;;7.55;2.10;;;12.90;99.90;;;;;;5027595;28;20046;-66
2022/11/01 10:45:54;;;;;;;10.00;1.38;;;13.00;99.90;;;;;;5010803;28;20046;-62
2022/11/01 10:48:37;;;;;;;10.75;1.60;;;12.90;99.90;;;;;;5007616;28;20053;-66
2022/11/01 10:51:07;;;;;;;8.30;1.30;;;12.90;99.90;;;;;;5011449;28;20505;-64
2022/11/01 10:53:48;;;;;;;7.95;1.60;;;12.90;99.90;;;;;;5020412;28;20052;-63
2022/11/01 10:56:21;;;;;;;13.50;1.73;;;12.90;99.90;;;;;;5030894;28;20044;-68
2022/11/01 10:59:00;;;;;;;9.45;2.35;;;12.90;99.90;;;;;;5030949;28;20489;-66
2022/11/01 11:01:36;;;;;;;7.75;1.35;;;12.90;99.90;;;;;;5030509;28;20053;-63
2022/11/01 11:04:10;;;;;;;9.73;2.97;;;13.00;99.90;;;;;;5028021;28;20213;-67
2022/11/01 11:06:39;;;;;;;12.32;1.45;;;13.00;99.90;;;;;;5024103;28;20501;-65
2022/11/01 11:09:20;;;;;;;14.07;1.38;;;13.00;99.90;;;;;;5025184;28;20049;-63
2022/11/01 11:11:49;;;;;;;9.88;1.52;;;13.00;99.90;;;;;;5030597;28;20042;-64
2022/11/01 11:14:19;;;;;;;8.68;1.98;;;13.00;99.90;;;;;;5030566;28;20050;-67
2022/11/01 11:16:56;;;;;;;;;;;13.00;99.90;;;;;;5030035;28;20057;-63
2022/11/01 11:19:37;;;;;;;7.90;1.48;;;12.90;99.90;;;;;;5030650;28;19928;-66
2022/11/01 11:22:07;;;;;;;10.82;1.40;;;12.90;99.90;;;;;;5025208;28;20498;-63
2022/11/01 11:24:36;;;;;;;;;;;12.80;99.90;;;;;;5030756;28;20045;-65
2022/11/01 11:27:13;;;;;;;9.20;1.02;;;12.70;99.90;;;;;;5029282;28;19921;-69
2022/11/01 11:29:47;;;;;;;13.15;1.40;;;12.70;99.90;;;;;;5010984;28;20046;-63
2022/11/01 11:32:20;;;;;;;17.58;1.65;;;12.60;99.90;;;;;;5013048;28;20046;-64
2022/11/01 11:34:58;;;;;;;9.35;1.80;;;12.60;99.90;;;;;;5028269;28;20041;-62
2022/11/01 11:37:30;;;;;;;7.22;1.08;;;12.50;99.90;;;;;;5013010;28;21078;-62
2022/11/01 11:40:21;;;;;;;8.65;1.00;;;12.50;99.90;;;;;;5030319;28;20056;-65
2022/11/01 11:42:50;;;;;;;9.15;2.38;;;12.50;99.90;;;;;;5029427;28;20057;-63
2022/11/01 11:45:21;;;;;;;9.82;1.48;;;12.50;99.90;;;;;;5029719;28;20523;-62
2022/11/01 11:47:49;;;;;;;11.27;1.40;;;12.50;99.90;;;;;;5030187;28;20057;-62
2022/11/01 11:50:19;;;;;;;9.38;1.75;;;12.60;99.90;;;;;;5029990;28;20042;-63
2022/11/01 11:52:49;;;;;;;11.75;1.42;;;12.60;99.90;;;;;;5025497;28;20045;-62
2022/11/01 11:55:38;;;;;;;8.70;1.13;;;12.70;99.90;;;;;;5028894;28;20053;-63
2022/11/01 11:58:17;;;;;;;13.65;1.30;;;12.80;99.90;;;;;;5028464;28;20053;-62
2022/11/01 12:00:53;;;;;;;8.15;1.40;;;12.90;99.90;;;;;;5028833;28;20048;-63
2022/11/01 12:03:21;;;;;;;8.85;1.30;;;12.90;99.90;;;;;;5029420;28;20048;-61
2022/11/01 12:06:04;;;;;;;8.20;0.93;;;13.20;99.90;;;;;;5029756;28;20049;-62
2022/11/01 12:08:43;;;;;;;5.88;0.90;;;13.20;99.90;;;;;;5028805;28;20389;-62
2022/11/01 12:11:12;;;;;;;5.10;1.20;;;13.00;99.90;;;;;;5029555;28;20049;-66
2022/11/01 12:13:58;;;;;;;4.60;0.93;;;12.80;99.90;;;;;;5028414;28;20291;-62
2022/11/01 12:16:25;;;;;;;7.05;1.00;;;12.50;99.90;;;;;;5029735;28;20510;-65
2022/11/01 12:18:55;;;;;;;7.03;1.50;;;12.50;99.90;;;;;;5029317;28;20048;-63
2022/11/01 12:21:32;;;;;;;6.60;1.10;;;12.40;99.90;;;;;;5023294;28;20045;-64
2022/11/01 12:24:22;;;;;;;21.23;5.18;;;12.40;99.90;;;;;;5017195;28;20045;-62
2022/11/01 12:26:53;;;;;;;11.73;1.50;;;12.40;99.90;;;;;;5010558;28;20045;-62
2022/11/01 12:29:35;;;;;;;32.75;9.70;;;12.40;99.90;;;;;;5027499;28;20049;-63
2022/11/01 12:32:13;;;;;;;20.05;2.80;;;12.40;99.90;;;;;;5008991;28;20193;-62
2022/11/01 12:34:44;;;;;;;5.43;1.23;;;12.40;99.90;;;;;;5029123;28;20056;-62
2022/11/01 12:37:37;;;;;;;13.63;1.77;;;12.50;99.90;;;;;;5025217;28;20053;-69
2022/11/01 12:40:41;;;;;;;9.73;2.08;;;12.50;99.90;;;;;;5014959;28;20856;-62
2022/11/01 12:43:11;;;;;;;12.18;2.00;;;12.50;99.90;;;;;;5015481;28;20543;-63
2022/11/01 12:45:57;;;;;;;10.13;1.30;;;12.40;99.90;;;;;;5012138;28;20056;-62
2022/11/01 12:48:34;;;;;;;10.48;1.60;;;12.50;99.90;;;;;;5019791;28;20493;-61
2022/11/01 12:51:13;;;;;;;13.07;2.10;;;12.40;99.90;;;;;;5028992;28;20045;-63
2022/11/01 12:53:51;;;;;;;16.88;1.98;;;12.40;99.90;;;;;;5027512;28;20064;-64
2022/11/01 12:56:19;;;;;;;11.75;2.50;;;12.40;99.90;;;;;;5028618;28;20056;-64
2022/11/01 12:58:47;;;;;;;13.90;2.45;;;12.40;99.90;;;;;;5028523;28;20061;-65
2022/11/01 13:01:32;;;;;;;14.52;1.88;;;12.40;99.90;;;;;;5028600;28;20048;-67
2022/11/01 13:04:22;;;;;;;15.48;2.42;;;12.40;99.90;;;;;;5028092;28;20049;-68
2022/11/01 13:07:16;;;;;;;15.48;2.05;;;12.50;99.90;;;;;;5028494;28;20049;-62
2022/11/01 13:10:14;;;;;;;5.95;1.52;;;12.50;99.90;;;;;;5008912;28;20058;-62
2022/11/01 13:12:51;;;;;;;8.98;1.50;;;12.60;99.90;;;;;;5014388;28;20045;-61
2022/11/01 13:15:27;;;;;;;10.43;2.33;;;12.70;99.90;;;;;;5008617;28;20041;-60
2022/11/01 13:18:16;;;;;;;7.80;1.30;;;12.80;99.90;;;;;;5015118;28;20519;-61
2022/11/01 13:21:07;;;;;;;6.30;1.52;;;12.80;99.90;;;;;;5028448;28;20477;-62